Time;durP1;ratioP1;P1;durP2;ratioP2;P2;SDS_P1;SDS_P2;PMS_P1;PMS_P2;Temp;Humidity;BMP_temperature;BMP_pressure;BME280_temperature;BME280_humidity;BME280_pressure;Samples;Min_cycle;Max_cycle;Signal;HPM_P1;HPM_P2
2023/05/13 00:00:03;;;;;;;21.33;14.32;;;;;;;-142.57;100.00;115900.28;5016436;28;20037;-89
2023/05/13 00:02:30;;;;;;;20.35;14.40;;;;;;;-142.57;100.00;115900.28;5015841;28;20041;-87
2023/05/13 00:04:55;;;;;;;22.42;14.02;;;;;;;-142.57;100.00;115900.28;5001427;28;20045;-89
2023/05/13 00:07:21;;;;;;;20.55;13.95;;;;;;;-142.57;100.00;115900.28;5033053;28;20151;-88
2023/05/13 00:09:52;;;;;;;20.92;14.68;;;;;;;-142.57;100.00;115900.28;4999250;28;20490;-89
2023/05/13 00:12:17;;;;;;;23.10;14.70;;;;;;;-142.57;100.00;115900.28;5033194;28;20367;-90
2023/05/13 00:14:45;;;;;;;20.33;15.43;;;;;;;-142.57;100.00;115900.28;5014720;28;20045;-89
2023/05/13 00:17:11;;;;;;;17.98;13.98;;;;;;;-142.57;100.00;115900.28;5032806;28;20039;-89
2023/05/13 00:19:36;;;;;;;19.92;15.07;;;;;;;-142.57;100.00;115900.28;5033266;28;20017;-89
2023/05/13 00:22:02;;;;;;;23.20;15.77;;;;;;;-142.57;100.00;115900.28;5033572;28;20034;-87
2023/05/13 00:24:27;;;;;;;29.60;15.88;;;;;;;-142.57;100.00;115900.28;5032950;28;20402;-87
2023/05/13 00:26:54;;;;;;;24.70;15.63;;;;;;;-142.57;100.00;115900.28;5032278;28;20037;-88
2023/05/13 00:29:20;;;;;;;22.17;14.98;;;;;;;-142.57;100.00;115900.28;5003954;28;20064;-86
2023/05/13 00:31:46;;;;;;;23.58;17.10;;;;;;;-142.57;100.00;115900.28;4997897;28;20041;-87
2023/05/13 00:34:11;;;;;;;26.30;16.90;;;;;;;-142.57;100.00;115900.28;5016447;28;20038;-88
2023/05/13 00:36:37;;;;;;;28.17;16.45;;;;;;;-142.57;100.00;115900.28;4999420;28;20064;-87
2023/05/13 00:39:02;;;;;;;23.90;15.98;;;;;;;-142.57;100.00;115900.28;5016697;28;20038;-87
2023/05/13 00:41:28;;;;;;;22.52;16.90;;;;;;;-142.57;100.00;115900.28;5023923;28;20037;-90
2023/05/13 00:43:57;;;;;;;24.20;16.63;;;;;;;-142.57;100.00;115900.28;5056071;28;20124;-87
2023/05/13 00:46:23;;;;;;;27.75;18.58;;;;;;;-142.57;100.00;115900.28;5056444;28;20161;-87
2023/05/13 00:48:50;;;;;;;25.00;18.65;;;;;;;-142.57;100.00;115900.28;5056302;28;20114;-87
2023/05/13 00:51:16;;;;;;;25.95;18.30;;;;;;;-142.57;100.00;115900.28;5056392;28;20403;-87
2023/05/13 00:53:42;;;;;;;25.55;17.50;;;;;;;-142.57;100.00;115900.28;5055887;28;20044;-89
2023/05/13 00:56:07;;;;;;;34.05;19.15;;;;;;;-142.57;100.00;115900.28;5037754;28;20032;-87
2023/05/13 00:58:33;;;;;;;23.15;17.02;;;;;;;-142.57;100.00;115900.28;5037676;28;20040;-88
2023/05/13 01:01:13;;;;;;;30.23;16.80;;;;;;;-142.57;100.00;115900.28;5037176;28;20442;-88
2023/05/13 01:04:07;;;;;;;24.83;16.52;;;;;;;-142.57;100.00;115900.28;5036983;28;20441;-88
2023/05/13 01:06:38;;;;;;;21.98;15.20;;;;;;;-142.57;100.00;115900.28;5037257;28;20025;-89
2023/05/13 01:09:25;;;;;;;22.35;14.60;;;;;;;-142.57;100.00;115900.28;5056313;28;20450;-87
2023/05/13 01:11:54;;;;;;;24.23;15.32;;;;;;;-142.57;100.00;115900.28;5063979;28;20087;-87
2023/05/13 01:14:24;;;;;;;23.58;15.35;;;;;;;-142.57;100.00;115900.28;5066923;28;20047;-88
2023/05/13 01:17:03;;;;;;;23.38;14.80;;;;;;;-142.57;100.00;115900.28;5078797;28;20029;-88
2023/05/13 01:19:45;;;;;;;23.95;14.52;;;;;;;-142.57;100.00;115900.28;5056095;28;20056;-89
2023/05/13 01:22:11;;;;;;;25.55;15.13;;;;;;;-142.57;100.00;115900.28;5056017;28;20037;-90
2023/05/13 01:24:37;;;;;;;21.98;13.80;;;;;;;-142.57;100.00;115900.28;5037158;28;20427;-86
2023/05/13 01:27:04;;;;;;;27.48;14.65;;;;;;;-142.57;100.00;115900.28;5037308;28;20179;-88
2023/05/13 01:29:30;;;;;;;23.08;14.98;;;;;;;-142.57;100.00;115900.28;5037187;28;20040;-87
2023/05/13 01:31:56;;;;;;;23.23;15.50;;;;;;;-142.57;100.00;115900.28;5037251;28;20025;-89
2023/05/13 01:34:24;;;;;;;27.30;15.80;;;;;;;-142.57;100.00;115900.28;5037155;28;20128;-90
2023/05/13 01:36:50;;;;;;;25.58;15.35;;;;;;;-142.57;100.00;115900.28;5036387;28;20036;-85
2023/05/13 01:39:22;;;;;;;26.10;17.75;;;;;;;-142.57;100.00;115900.28;5036589;28;20048;-84
2023/05/13 01:41:53;;;;;;;28.23;18.10;;;;;;;-142.57;100.00;115900.28;5035996;28;20121;-85
2023/05/13 01:44:19;;;;;;;26.23;19.00;;;;;;;-142.57;100.00;115900.28;5035639;28;20033;-86
2023/05/13 01:46:46;;;;;;;27.70;17.13;;;;;;;-142.57;100.00;115900.28;5035865;28;20025;-85
2023/05/13 01:49:11;;;;;;;30.15;18.77;;;;;;;-142.57;100.00;115900.28;5035752;28;20118;-87
2023/05/13 01:51:37;;;;;;;36.70;21.08;;;;;;;-142.57;100.00;115900.28;5053787;28;20064;-85
2023/05/13 01:54:04;;;;;;;32.10;19.13;;;;;;;-142.57;100.00;115900.28;5054197;28;20090;-84
2023/05/13 01:56:31;;;;;;;33.95;20.42;;;;;;;-142.57;100.00;115900.28;5035669;28;20033;-84
2023/05/13 01:58:57;;;;;;;33.92;20.90;;;;;;;-142.57;100.00;115900.28;5035727;28;20158;-83
2023/05/13 02:01:23;;;;;;;34.95;20.63;;;;;;;-142.57;100.00;115900.28;5038603;28;20479;-85
2023/05/13 02:03:49;;;;;;;49.00;24.73;;;;;;;-142.57;100.00;115900.28;5036050;28;20040;-86
2023/05/13 02:06:14;;;;;;;51.95;25.90;;;;;;;-142.57;100.00;115900.28;5035246;28;20417;-86
2023/05/13 02:08:40;;;;;;;40.53;25.83;;;;;;;-142.57;100.00;115900.28;5053115;28;20028;-85
2023/05/13 02:11:09;;;;;;;46.22;26.83;;;;;;;-142.57;100.00;115900.28;5019086;28;20055;-88
2023/05/13 02:13:35;;;;;;;52.55;29.67;;;;;;;-142.57;100.00;115900.28;5053351;28;20485;-85
2023/05/13 02:16:02;;;;;;;56.72;30.30;;;;;;;-142.57;100.00;115900.28;5035170;28;20040;-85
2023/05/13 02:18:27;;;;;;;54.95;30.27;;;;;;;-142.57;100.00;115900.28;5053035;28;20036;-84
2023/05/13 02:20:53;;;;;;;52.55;28.50;;;;;;;-142.57;100.00;115900.28;5035449;28;20050;-85
2023/05/13 02:23:18;;;;;;;50.92;29.85;;;;;;;-142.57;100.00;115900.28;5053617;28;20029;-87
2023/05/13 02:25:44;;;;;;;61.90;30.38;;;;;;;-142.57;100.00;115900.28;5035178;28;20095;-85
2023/05/13 02:28:10;;;;;;;56.10;30.98;;;;;;;-142.57;100.00;115900.28;5018528;28;20037;-86
2023/05/13 02:30:35;;;;;;;56.80;32.22;;;;;;;-142.57;100.00;115900.28;5035243;28;20041;-86
2023/05/13 02:33:01;;;;;;;56.22;31.27;;;;;;;-142.57;100.00;115900.28;5052724;28;20090;-86
2023/05/13 02:35:30;;;;;;;54.97;30.90;;;;;;;-142.57;100.00;115900.28;5052920;28;20116;-87
2023/05/13 02:37:58;;;;;;;55.30;30.98;;;;;;;-142.57;100.00;115900.28;5034596;28;20032;-84
2023/05/13 02:40:25;;;;;;;56.22;31.80;;;;;;;-142.57;100.00;115900.28;5034779;28;20512;-87
2023/05/13 02:42:50;;;;;;;52.15;30.67;;;;;;;-142.57;100.00;115900.28;5052550;28;20033;-85
2023/05/13 02:45:21;;;;;;;52.85;30.17;;;;;;;-142.57;100.00;115900.28;5034663;28;20028;-84
2023/05/13 02:47:51;;;;;;;44.33;27.05;;;;;;;-142.57;100.00;115900.28;5034785;28;20029;-86
2023/05/13 02:50:16;;;;;;;52.65;28.13;;;;;;;-142.57;100.00;115900.28;5034656;28;20039;-84
2023/05/13 02:52:43;;;;;;;50.00;27.85;;;;;;;-142.57;100.00;115900.28;5035694;28;20032;-85
2023/05/13 02:55:09;;;;;;;45.33;26.65;;;;;;;-142.57;100.00;115900.28;5050875;28;20040;-86
2023/05/13 02:57:36;;;;;;;53.83;27.67;;;;;;;-142.57;100.00;115900.28;5033210;28;20199;-86
2023/05/13 03:00:06;;;;;;;47.85;27.05;;;;;;;-142.57;100.00;115900.28;5033340;28;20045;-88
2023/05/13 03:02:33;;;;;;;53.28;27.30;;;;;;;-142.57;100.00;115900.28;5033548;28;20482;-85
2023/05/13 03:04:59;;;;;;;48.00;26.95;;;;;;;-142.57;100.00;115900.28;5051194;28;20029;-84
2023/05/13 03:07:25;;;;;;;47.17;26.13;;;;;;;-142.57;100.00;115900.28;5017467;28;20102;-84
2023/05/13 03:09:50;;;;;;;47.58;25.42;;;;;;;-142.57;100.00;115900.28;5034802;28;20033;-84
2023/05/13 03:12:16;;;;;;;46.80;24.02;;;;;;;-142.57;100.00;115900.28;5034722;28;20053;-87
2023/05/13 03:14:43;;;;;;;42.90;21.77;;;;;;;-142.57;100.00;115900.28;5053973;28;20111;-86
2023/05/13 03:17:10;;;;;;;39.67;21.60;;;;;;;-142.57;100.00;115900.28;5040220;28;20448;-84
2023/05/13 03:19:37;;;;;;;31.15;19.90;;;;;;;-142.57;100.00;115900.28;5035868;28;20041;-84
2023/05/13 03:22:04;;;;;;;25.23;13.48;;;;;;;-142.57;100.00;115900.28;5035600;28;20036;-85
2023/05/13 03:24:29;;;;;;;20.65;12.80;;;;;;;-142.57;100.00;115900.28;5053841;28;20040;-84
2023/05/13 03:26:56;;;;;;;21.23;12.98;;;;;;;-142.57;100.00;115900.28;5054484;28;20132;-83
2023/05/13 03:29:22;;;;;;;20.42;12.27;;;;;;;-142.57;100.00;115900.28;5037184;28;20463;-83
2023/05/13 03:31:48;;;;;;;23.63;12.98;;;;;;;-142.57;100.00;115900.28;5026301;28;20363;-86
2023/05/13 03:34:14;;;;;;;20.30;11.55;;;;;;;-142.57;100.00;115900.28;5032771;28;20029;-85
2023/05/13 03:36:40;;;;;;;22.52;12.90;;;;;;;-142.57;100.00;115900.28;5014538;28;20048;-85
2023/05/13 03:39:06;;;;;;;26.88;12.40;;;;;;;-142.57;100.00;115900.28;5014506;28;20037;-84
2023/05/13 03:41:32;;;;;;;22.10;11.95;;;;;;;-142.57;100.00;115900.28;5014752;28;20427;-85
2023/05/13 03:43:58;;;;;;;21.02;10.48;;;;;;;-142.57;100.00;115900.28;5014829;28;20524;-85
2023/05/13 03:46:26;;;;;;;26.33;13.00;;;;;;;-142.57;100.00;115900.28;5014288;28;20065;-85
2023/05/13 03:48:54;;;;;;;22.30;12.23;;;;;;;-142.57;100.00;115900.28;5014800;28;20067;-84
2023/05/13 03:51:21;;;;;;;25.55;13.63;;;;;;;-142.57;100.00;115900.28;5015097;28;20110;-84
2023/05/13 03:53:47;;;;;;;28.13;14.38;;;;;;;-142.57;100.00;115900.28;5015427;28;20065;-86
2023/05/13 03:56:13;;;;;;;30.23;15.25;;;;;;;-142.57;100.00;115900.28;5016312;28;20053;-86
2023/05/13 03:58:39;;;;;;;34.33;17.73;;;;;;;-142.57;100.00;115900.28;5021829;28;20048;-85
2023/05/13 04:01:06;;;;;;;37.47;20.85;;;;;;;-142.57;100.00;115900.28;5039880;28;20033;-87
2023/05/13 04:03:33;;;;;;;35.17;19.70;;;;;;;-142.57;100.00;115900.28;5025683;28;20038;-83
2023/05/13 04:05:59;;;;;;;33.20;19.48;;;;;;;-142.57;100.00;115900.28;5029109;28;20076;-84
2023/05/13 04:08:25;;;;;;;31.40;19.35;;;;;;;-142.57;100.00;115900.28;5010422;28;20099;-83
2023/05/13 04:10:51;;;;;;;30.52;17.85;;;;;;;-142.57;100.00;115900.28;5026811;28;20036;-84
2023/05/13 04:13:17;;;;;;;30.85;15.57;;;;;;;-142.57;100.00;115900.28;5017378;28;20034;-83
2023/05/13 04:15:42;;;;;;;24.75;14.02;;;;;;;-142.57;100.00;115900.28;5021264;28;20036;-86
2023/05/13 04:18:08;;;;;;;31.05;14.07;;;;;;;-142.57;100.00;115900.28;4999988;28;20030;-86
2023/05/13 04:20:37;;;;;;;21.20;13.38;;;;;;;-142.57;100.00;115900.28;5007542;28;20040;-85
2023/05/13 04:23:02;;;;;;;21.08;13.23;;;;;;;-142.57;100.00;115900.28;4999811;28;20042;-87
2023/05/13 04:25:28;;;;;;;24.00;13.68;;;;;;;-142.57;100.00;115900.28;5018071;28;20161;-88
2023/05/13 04:27:54;;;;;;;27.15;13.40;;;;;;;-142.57;100.00;115900.28;4999801;28;20038;-88
2023/05/13 04:30:26;;;;;;;26.55;13.43;;;;;;;-142.57;100.00;115900.28;5000008;28;20038;-87
2023/05/13 04:32:52;;;;;;;27.65;14.45;;;;;;;-142.57;100.00;115900.28;4999606;28;20514;-85
2023/05/13 04:35:18;;;;;;;24.73;12.55;;;;;;;-142.57;100.00;115900.28;5001925;28;20034;-86
2023/05/13 04:37:45;;;;;;;29.92;15.05;;;;;;;-142.57;100.00;115900.28;5000381;28;20038;-85
2023/05/13 04:40:13;;;;;;;34.65;16.00;;;;;;;-142.57;100.00;115900.28;4999724;28;20034;-85
2023/05/13 04:42:39;;;;;;;28.85;18.23;;;;;;;-142.57;100.00;115900.28;5000221;28;20498;-87
2023/05/13 04:45:05;;;;;;;36.78;17.75;;;;;;;-142.57;100.00;115900.28;4999675;28;20038;-85
2023/05/13 04:47:33;;;;;;;30.80;18.73;;;;;;;-142.57;100.00;115900.28;5017337;28;20514;-86
2023/05/13 04:50:00;;;;;;;37.17;18.58;;;;;;;-142.57;100.00;115900.28;5000703;28;20044;-87
2023/05/13 04:52:25;;;;;;;39.45;19.20;;;;;;;-142.57;100.00;115900.28;5016875;28;20037;-86
2023/05/13 04:54:51;;;;;;;33.83;19.15;;;;;;;-142.57;100.00;115900.28;5017596;28;20161;-86
2023/05/13 04:57:16;;;;;;;32.85;17.85;;;;;;;-142.57;100.00;115900.28;4999764;28;20030;-88
2023/05/13 04:59:42;;;;;;;33.42;17.60;;;;;;;-142.57;100.00;115900.28;4985366;28;20535;-85
2023/05/13 05:02:08;;;;;;;28.98;17.25;;;;;;;-142.57;100.00;115900.28;5017771;28;20061;-87
2023/05/13 05:04:34;;;;;;;29.20;16.27;;;;;;;-142.57;100.00;115900.28;5032903;28;20113;-88
2023/05/13 05:07:01;;;;;;;32.10;17.38;;;;;;;-142.57;100.00;115900.28;5024506;28;20048;-89
2023/05/13 05:09:28;;;;;;;31.92;16.95;;;;;;;-142.57;100.00;115900.28;5021935;28;20033;-87
2023/05/13 05:11:54;;;;;;;25.55;15.70;;;;;;;-142.57;100.00;115900.28;5037747;28;20041;-88
2023/05/13 05:14:22;;;;;;;28.08;14.23;;;;;;;-142.57;100.00;115900.28;5040894;28;20128;-88
2023/05/13 05:16:52;;;;;;;21.98;13.77;;;;;;;-142.57;100.00;115900.28;5042247;28;20040;-87
2023/05/13 05:19:22;;;;;;;21.60;12.95;;;;;;;-142.57;100.00;115900.28;5031156;28;20116;-89
2023/05/13 05:21:51;;;;;;;26.02;14.32;;;;;;;-142.57;100.00;115900.28;5019975;28;20105;-89
2023/05/13 05:24:17;;;;;;;24.73;14.25;;;;;;;-142.57;100.00;115900.28;5018908;28;20048;-84
2023/05/13 05:26:43;;;;;;;26.25;13.95;;;;;;;-142.57;100.00;115900.28;5037562;28;20029;-86
2023/05/13 05:29:11;;;;;;;25.50;13.80;;;;;;;-142.57;100.00;115900.28;5017667;28;20367;-83
2023/05/13 05:31:37;;;;;;;22.88;14.60;;;;;;;-142.57;100.00;115900.28;4990819;28;20033;-85
2023/05/13 05:34:03;;;;;;;26.08;14.50;;;;;;;-142.57;100.00;115900.28;5020197;28;20033;-85
2023/05/13 05:36:28;;;;;;;24.98;14.77;;;;;;;-142.57;100.00;115900.28;5032420;28;20500;-84
2023/05/13 05:38:54;;;;;;;32.58;15.05;;;;;;;-142.57;100.00;115900.28;5018389;28;20034;-85
2023/05/13 05:41:26;;;;;;;29.35;15.55;;;;;;;-142.57;100.00;115900.28;5007483;28;20510;-91
2023/05/13 05:43:51;;;;;;;36.95;16.25;;;;;;;-142.57;100.00;115900.28;5002146;28;20192;-87
2023/05/13 05:46:18;;;;;;;26.63;16.48;;;;;;;-142.57;100.00;115900.28;5002567;28;20480;-87
2023/05/13 05:48:43;;;;;;;30.45;16.38;;;;;;;-142.57;100.00;115900.28;5012508;28;20026;-89
2023/05/13 05:51:09;;;;;;;26.17;15.38;;;;;;;-142.57;100.00;115900.28;5007496;28;20086;-87
2023/05/13 05:53:36;;;;;;;30.05;15.88;;;;;;;-142.57;100.00;115900.28;4999556;28;20521;-86
2023/05/13 05:56:03;;;;;;;39.47;17.15;;;;;;;-142.57;100.00;115900.28;4997183;28;20030;-85
2023/05/13 05:58:29;;;;;;;32.20;17.23;;;;;;;-142.57;100.00;115900.28;4997225;28;20034;-86
2023/05/13 06:00:57;;;;;;;34.35;16.73;;;;;;;-142.57;100.00;115900.28;5014377;28;20053;-87
2023/05/13 06:03:22;;;;;;;30.23;17.88;;;;;;;-142.57;100.00;115900.28;4997042;28;20117;-83
2023/05/13 06:05:49;;;;;;;33.22;18.85;;;;;;;-142.57;100.00;115900.28;4996918;28;20077;-83
2023/05/13 06:08:15;;;;;;;30.40;17.15;;;;;;;-142.57;100.00;115900.28;5014484;28;20065;-82
2023/05/13 06:10:43;;;;;;;33.00;16.90;;;;;;;-142.57;100.00;115900.28;4996902;28;20038;-84
2023/05/13 06:13:09;;;;;;;26.92;14.88;;;;;;;-142.57;100.00;115900.28;4996694;28;20549;-85
2023/05/13 06:15:37;;;;;;;29.70;16.13;;;;;;;-142.57;100.00;115900.28;4997378;28;20114;-84
2023/05/13 06:18:04;;;;;;;27.95;17.27;;;;;;;-142.57;100.00;115900.28;5014259;28;20037;-83
2023/05/13 06:20:32;;;;;;;31.90;17.90;;;;;;;-142.57;100.00;115900.28;4996192;28;20030;-84
2023/05/13 06:22:57;;;;;;;33.25;16.85;;;;;;;-142.57;100.00;115900.28;5013824;28;20042;-85
2023/05/13 06:25:23;;;;;;;29.52;16.67;;;;;;;-142.57;100.00;115900.28;5014397;28;20094;-83
2023/05/13 06:27:49;;;;;;;30.20;16.10;;;;;;;-142.57;100.00;115900.28;5013492;28;20061;-84
2023/05/13 06:30:20;;;;;;;30.23;16.83;;;;;;;-142.57;100.00;115900.28;4996177;28;20042;-85
2023/05/13 06:32:45;;;;;;;30.33;15.20;;;;;;;-142.57;100.00;115900.28;4996659;28;20040;-84
2023/05/13 06:35:11;;;;;;;27.58;16.02;;;;;;;-142.57;100.00;115900.28;4996274;28;20030;-84
2023/05/13 06:37:37;;;;;;;29.92;16.85;;;;;;;-142.57;100.00;115900.28;5017298;28;20364;-87
2023/05/13 06:40:03;;;;;;;30.67;16.27;;;;;;;-142.57;100.00;115900.28;5054748;28;20395;-86
2023/05/13 06:42:35;;;;;;;30.48;16.58;;;;;;;-142.57;100.00;115900.28;5006712;28;20052;-86
2023/05/13 06:45:09;;;;;;;30.38;16.55;;;;;;;-142.57;100.00;115900.28;5004370;28;20139;-84
2023/05/13 06:47:35;;;;;;;23.52;11.93;;;;;;;-142.57;100.00;115900.28;5032534;28;20029;-81
2023/05/13 06:50:02;;;;;;;12.73;6.68;;;;;;;-142.57;100.00;115900.28;5026660;28;20121;-83
2023/05/13 06:52:30;;;;;;;12.68;4.95;;;;;;;-142.57;100.00;115900.28;5002951;28;20125;-84
2023/05/13 06:54:56;;;;;;;13.52;4.93;;;;;;;-142.57;100.00;115900.28;5018655;28;20209;-85
2023/05/13 06:57:22;;;;;;;5.88;3.58;;;;;;;-142.57;100.00;115900.28;5030776;28;20039;-82
2023/05/13 06:59:51;;;;;;;8.43;3.00;;;;;;;-142.57;100.00;115900.28;5038702;28;20037;-87
2023/05/13 07:02:45;;;;;;;6.88;4.03;;;;;;;-142.57;100.00;115900.28;4987513;28;20088;-88
2023/05/13 07:05:13;;;;;;;10.82;4.43;;;;;;;-142.57;100.00;115900.28;4996041;28;20037;-87
2023/05/13 07:07:39;;;;;;;9.10;4.75;;;;;;;-142.57;100.00;115900.28;4996397;28;20049;-87
2023/05/13 07:10:08;;;;;;;13.13;5.40;;;;;;;-142.57;100.00;115900.28;5013107;28;20437;-87
2023/05/13 07:12:39;;;;;;;13.23;5.75;;;;;;;-142.57;100.00;115900.28;5012611;28;20034;-86
2023/05/13 07:15:11;;;;;;;13.02;6.50;;;;;;;-142.57;100.00;115900.28;5012885;28;20084;-86
2023/05/13 07:17:40;;;;;;;12.00;6.87;;;;;;;-142.57;100.00;115900.28;4995887;28;20052;-88
2023/05/13 07:20:15;;;;;;;15.23;6.93;;;;;;;-142.57;100.00;115900.28;4995599;28;20367;-86
2023/05/13 07:22:43;;;;;;;12.20;6.75;;;;;;;-142.57;100.00;115900.28;5013846;28;20101;-86
2023/05/13 07:25:12;;;;;;;11.95;6.45;;;;;;;-142.57;100.00;115900.28;5013473;28;20053;-85
2023/05/13 07:27:40;;;;;;;16.60;7.30;;;;;;;-142.57;100.00;115900.28;5013993;28;20446;-88
2023/05/13 07:30:07;;;;;;;13.13;6.28;;;;;;;-142.57;100.00;115900.28;5022283;28;20038;-87
2023/05/13 07:32:35;;;;;;;14.48;7.05;;;;;;;-142.57;100.00;115900.28;5020274;28;20042;-89
2023/05/13 07:35:02;;;;;;;13.63;7.13;;;;;;;-142.57;100.00;115900.28;5005106;28;20133;-89
2023/05/13 07:37:29;;;;;;;13.48;7.60;;;;;;;-142.57;91.58;115900.28;5023878;28;20139;-88
2023/05/13 07:39:56;;;;;;;14.82;7.13;;;;;;;-142.57;94.74;115900.28;5021260;28;20104;-88
2023/05/13 07:42:23;;;;;;;12.90;7.03;;;;;;;-142.57;89.21;115900.28;5021189;28;20110;-90
2023/05/13 07:44:52;;;;;;;12.20;6.55;;;;;;;-142.57;84.33;115900.28;5026059;28;20034;-88
2023/05/13 07:47:18;;;;;;;15.80;7.20;;;;;;;-142.57;85.32;115900.28;5026303;28;20045;-87
2023/05/13 07:49:43;;;;;;;16.65;7.25;;;;;;;-142.57;82.78;115900.28;5026431;28;20121;-89
2023/05/13 07:52:15;;;;;;;18.85;7.05;;;;;;;-142.57;80.21;115900.28;5028861;28;20549;-88
2023/05/13 07:54:40;;;;;;;12.43;6.17;;;;;;;-142.57;74.95;115900.28;5011224;28;20045;-89
2023/05/13 07:57:08;;;;;;;11.10;6.30;;;;;;;-142.57;73.39;115900.28;5021484;28;20052;-89
2023/05/13 07:59:36;;;;;;;9.95;6.43;;;;;;;-142.57;76.05;115900.28;5028536;28;20036;-88
2023/05/13 08:02:02;;;;;;;12.55;6.68;;;;;;;-142.57;73.44;115900.28;5024947;28;20045;-85
2023/05/13 08:04:27;;;;;;;10.10;6.63;;;;;;;-142.57;70.52;115900.28;5021712;28;20438;-88
2023/05/13 08:06:53;;;;;;;17.98;6.40;;;;;;;-142.57;71.38;115900.28;5022318;28;20035;-88
2023/05/13 08:11:58;;;;;;;12.27;6.53;;;;;;;-142.57;73.02;115900.28;5042635;28;20061;-87
2023/05/13 08:14:23;;;;;;;9.82;5.53;;;;;;;-142.57;72.26;115900.28;5009599;28;20129;-86
2023/05/13 08:16:49;;;;;;;11.02;4.90;;;;;;;-142.57;71.56;115900.28;5043030;28;20489;-86
2023/05/13 08:19:21;;;;;;;10.88;5.55;;;;;;;-142.57;71.28;115900.28;5043200;28;20064;-88
2023/05/13 08:21:48;;;;;;;10.18;6.00;;;;;;;-142.57;68.48;115900.28;5025499;28;20046;-86
2023/05/13 08:24:15;;;;;;;9.60;5.25;;;;;;;-142.57;67.90;115900.28;5043094;28;20048;-85
2023/05/13 08:26:42;;;;;;;14.15;5.38;;;;;;;-142.57;68.01;115900.28;5040909;28;20045;-86
2023/05/13 08:29:14;;;;;;;7.63;4.47;;;;;;;-142.57;65.80;115900.28;5042123;28;20037;-87
2023/05/13 08:31:40;;;;;;;7.43;4.30;;;;;;;-142.57;67.78;115900.28;5040533;28;20395;-86
2023/05/13 08:34:10;;;;;;;8.98;4.43;;;;;;;-142.57;69.30;115900.28;5041134;28;20079;-87
2023/05/13 08:36:35;;;;;;;10.27;4.90;;;;;;;-142.57;66.96;115900.28;5024031;28;20546;-86
2023/05/13 08:39:07;;;;;;;8.27;5.72;;;;;;;-142.57;64.06;115900.28;5024999;28;20049;-86
2023/05/13 08:41:34;;;;;;;11.87;6.23;;;;;;;-142.57;70.19;115900.28;5021555;28;20065;-88
2023/05/13 08:44:04;;;;;;;11.63;6.78;;;;;;;-142.57;69.66;115900.28;5022761;28;20272;-87
2023/05/13 08:46:32;;;;;;;15.15;7.03;;;;;;;-142.57;70.59;115900.28;5038084;28;20037;-86
2023/05/13 08:48:58;;;;;;;11.07;6.43;;;;;;;-142.57;69.39;115900.28;5038055;28;20039;-86
2023/05/13 08:51:27;;;;;;;11.77;6.30;;;;;;;-142.57;71.57;115900.28;5037769;28;20120;-87
2023/05/13 08:53:56;;;;;;;10.75;6.47;;;;;;;-142.57;76.36;115900.28;5040083;28;20022;-87
2023/05/13 08:56:24;;;;;;;12.95;6.25;;;;;;;-142.57;72.08;115900.28;5024609;28;20041;-86
2023/05/13 08:58:53;;;;;;;15.77;5.15;;;;;;;-142.57;65.83;115900.28;5042506;28;20064;-87
2023/05/13 09:01:20;;;;;;;9.35;5.10;;;;;;;-142.57;63.32;115900.28;5042567;28;20073;-85
2023/05/13 09:03:58;;;;;;;13.50;6.55;;;;;;;-142.57;62.58;115900.28;5040962;28;20109;-87
2023/05/13 09:06:24;;;;;;;15.93;6.70;;;;;;;-142.57;63.85;115900.28;5039877;28;20037;-86
2023/05/13 09:08:50;;;;;;;11.43;6.82;;;;;;;-142.57;63.11;115900.28;5040647;28;20037;-85
2023/05/13 09:11:16;;;;;;;14.27;6.95;;;;;;;-142.57;65.15;115900.28;5020657;28;20049;-89
2023/05/13 09:13:43;;;;;;;87.90;11.50;;;;;;;-142.57;68.00;115900.28;5021254;28;20098;-86
2023/05/13 09:16:11;;;;;;;14.50;6.97;;;;;;;-142.57;63.34;115900.28;5008946;28;20058;-88
2023/05/13 09:18:38;;;;;;;37.00;7.15;;;;;;;-142.57;59.73;115900.28;5000969;28;20109;-85
2023/05/13 09:21:26;;;;;;;10.95;5.00;;;;;;;-142.57;58.47;115900.28;5022620;28;20038;-85
2023/05/13 09:24:12;;;;;;;23.35;4.97;;;;;;;-142.57;59.65;115900.28;5017607;28;20048;-84
2023/05/13 09:26:40;;;;;;;10.85;5.40;;;;;;;-142.57;64.10;115900.28;5016525;28;20030;-89
2023/05/13 09:29:15;;;;;;;23.80;6.90;;;;;;;-142.57;66.40;115900.28;5021555;28;20033;-85
2023/05/13 09:31:42;;;;;;;9.57;5.20;;;;;;;-142.57;60.44;115900.28;5018918;28;20093;-87
2023/05/13 09:34:07;;;;;;;7.47;4.10;;;;;;;-142.57;57.88;115900.28;5055466;28;20093;-86
2023/05/13 09:36:33;;;;;;;9.48;4.28;;;;;;;-142.57;54.93;115900.28;5050339;28;20075;-88
2023/05/13 09:38:59;;;;;;;8.75;4.18;;;;;;;-142.57;52.28;115900.28;5027885;28;20125;-85
2023/05/13 09:41:29;;;;;;;8.05;3.78;;;;;;;-142.57;54.48;115900.28;5022767;28;20041;-86
2023/05/13 09:43:54;;;;;;;9.07;3.92;;;;;;;-142.57;51.38;115900.28;5008961;28;20056;-85
2023/05/13 09:46:20;;;;;;;8.38;3.38;;;;;;;-142.57;53.47;115900.28;5027325;28;20041;-84
2023/05/13 09:48:45;;;;;;;6.22;3.20;;;;;;;-142.57;51.91;115900.28;5023405;28;20487;-87
2023/05/13 09:51:13;;;;;;;10.82;3.53;;;;;;;-142.57;54.49;115900.28;5018650;28;20041;-85
2023/05/13 09:53:40;;;;;;;11.00;3.78;;;;;;;-142.57;55.35;115900.28;5016582;28;20034;-86
2023/05/13 09:56:08;;;;;;;5.63;2.95;;;;;;;-142.57;54.38;115900.28;4983074;28;20042;-87
2023/05/13 09:58:34;;;;;;;6.28;2.70;;;;;;;-142.57;51.61;115900.28;5016371;28;20472;-87
2023/05/13 10:01:01;;;;;;;12.70;3.30;;;;;;;-142.57;49.14;115900.28;5022817;28;20033;-86
2023/05/13 10:03:27;;;;;;;7.10;2.80;;;;;;;-142.57;52.46;115900.28;5003733;28;20057;-88
2023/05/13 10:05:56;;;;;;;8.68;2.85;;;;;;;-142.57;52.74;115900.28;5007874;28;20363;-88
2023/05/13 10:08:26;;;;;;;;;;;;;;;-142.57;54.44;115900.28;5023141;28;20049;-89
2023/05/13 10:10:55;;;;;;;7.35;2.88;;;;;;;-142.57;57.62;115900.28;5024801;28;20409;-85
2023/05/13 10:13:23;;;;;;;6.75;2.30;;;;;;;-142.57;57.74;115900.28;5023805;28;20033;-84
2023/05/13 10:15:50;;;;;;;6.03;2.92;;;;;;;-142.57;56.82;115900.28;5025511;28;20037;-82
2023/05/13 10:18:17;;;;;;;13.70;2.60;;;;;;;-142.57;55.30;115900.28;5033530;28;20039;-85
2023/05/13 10:20:43;;;;;;;8.70;2.70;;;;;;;-142.57;58.81;115900.28;5019809;28;20029;-82
2023/05/13 10:23:10;;;;;;;7.60;2.95;;;;;;;-142.57;59.87;115900.28;5032762;28;20041;-85
2023/05/13 10:25:36;;;;;;;7.50;3.30;;;;;;;-142.57;58.90;115900.28;5023319;28;20372;-86
2023/05/13 10:28:03;;;;;;;9.90;2.85;;;;;;;-142.57;57.85;115900.28;5000173;28;20528;-88
2023/05/13 10:30:34;;;;;;;6.05;2.47;;;;;;;-142.57;58.72;115900.28;4985854;28;20045;-85
2023/05/13 10:33:01;;;;;;;10.02;2.58;;;;;;;-142.57;55.58;115900.28;5006700;28;20040;-81
2023/05/13 10:35:41;;;;;;;5.22;2.45;;;;;;;-142.57;56.01;115900.28;5024722;28;20084;-84
2023/05/13 10:38:35;;;;;;;5.68;2.17;;;;;;;-142.57;51.59;115900.28;5001762;28;20529;-81
2023/05/13 10:41:16;;;;;;;3.80;1.67;;;;;;;-142.57;51.27;115900.28;5026440;28;20518;-86
2023/05/13 10:43:42;;;;;;;6.22;2.10;;;;;;;-142.57;51.63;115900.28;5031481;28;20033;-82
2023/05/13 10:46:12;;;;;;;5.75;2.38;;;;;;;-142.57;51.68;115900.28;5004085;28;20034;-83
2023/05/13 10:48:38;;;;;;;11.63;2.40;;;;;;;-142.57;54.38;115900.28;5007076;28;20041;-83
2023/05/13 10:51:14;;;;;;;6.57;2.30;;;;;;;-142.57;58.58;115900.28;4999501;28;20042;-82
2023/05/13 10:53:47;;;;;;;6.82;3.25;;;;;;;-142.57;59.68;115900.28;5002563;28;20029;-83
2023/05/13 10:56:14;;;;;;;6.70;3.78;;;;;;;-142.57;61.71;115900.28;5014149;28;20065;-85